In Rescue
 
Open Full Screen Window  High Contrast Mode
Wind Gusting 32 knots
19
March 29, 2020 9:35 PM EDT
Weather Information
Wind Direction
  250 °
Wind Speed
  19 kt (22 mph)
Wind Gust
  32 kt (37 mph)
Altimeter
29.79 in
Visibility
10 SM
Temperature
10° C
50° F
Dewpoint
02° C
36° F
Humidity
58%
Sky Condition
Overcast @ 4,300 ft
VFR

METAR KVLL 300135Z AUTO 25019G32KT 10SM OVC043 10/02 A2979 RMK AO2 T00980021

FAA Disclaimer: The data displayed is for advisory purposes only and is not to be used for flight planning or operations.